sensor_id;sensor_type;location;lat;lon;timestamp;pressure;altitude;pressure_sealevel;temperature
12007;BMP180;6062;47.294;12.182;2022-11-20T00:01:25;79488.00;;;2.30
12007;BMP180;6062;47.294;12.182;2022-11-20T00:03:53;79487.00;;;2.30
12007;BMP180;6062;47.294;12.182;2022-11-20T00:06:20;79477.00;;;2.30
12007;BMP180;6062;47.294;12.182;2022-11-20T00:08:47;79485.00;;;2.30
12007;BMP180;6062;47.294;12.182;2022-11-20T00:11:19;79479.00;;;2.30
12007;BMP180;6062;47.294;12.182;2022-11-20T00:13:48;79464.00;;;2.30
12007;BMP180;6062;47.294;12.182;2022-11-20T00:16:17;79475.00;;;2.30
12007;BMP180;6062;47.294;12.182;2022-11-20T00:18:44;79477.00;;;2.30
12007;BMP180;6062;47.294;12.182;2022-11-20T00:21:18;79481.00;;;2.30
12007;BMP180;6062;47.294;12.182;2022-11-20T00:23:44;79486.00;;;2.30
12007;BMP180;6062;47.294;12.182;2022-11-20T00:26:14;79479.00;;;2.30
12007;BMP180;6062;47.294;12.182;2022-11-20T00:28:42;79482.00;;;2.30
12007;BMP180;6062;47.294;12.182;2022-11-20T00:31:15;79484.00;;;2.30
12007;BMP180;6062;47.294;12.182;2022-11-20T00:33:42;79479.00;;;2.30
12007;BMP180;6062;47.294;12.182;2022-11-20T00:36:23;79473.00;;;2.30
12007;BMP180;6062;47.294;12.182;2022-11-20T00:38:57;79471.00;;;2.40
12007;BMP180;6062;47.294;12.182;2022-11-20T00:41:25;79473.00;;;2.40
12007;BMP180;6062;47.294;12.182;2022-11-20T00:43:53;79479.00;;;2.40
12007;BMP180;6062;47.294;12.182;2022-11-20T00:46:22;79481.00;;;2.40
12007;BMP180;6062;47.294;12.182;2022-11-20T00:48:49;79480.00;;;2.40
12007;BMP180;6062;47.294;12.182;2022-11-20T00:51:19;79492.00;;;2.40
12007;BMP180;6062;47.294;12.182;2022-11-20T00:53:45;79476.00;;;2.40
12007;BMP180;6062;47.294;12.182;2022-11-20T00:56:15;79486.00;;;2.40
12007;BMP180;6062;47.294;12.182;2022-11-20T00:58:44;79487.00;;;2.40
12007;BMP180;6062;47.294;12.182;2022-11-20T01:01:14;79489.00;;;2.40
12007;BMP180;6062;47.294;12.182;2022-11-20T01:03:47;79491.00;;;2.40
12007;BMP180;6062;47.294;12.182;2022-11-20T01:08:50;79501.00;;;2.30
12007;BMP180;6062;47.294;12.182;2022-11-20T01:11:20;79497.00;;;2.30
12007;BMP180;6062;47.294;12.182;2022-11-20T01:13:49;79498.00;;;2.30
12007;BMP180;6062;47.294;12.182;2022-11-20T01:16:17;79496.00;;;2.30
12007;BMP180;6062;47.294;12.182;2022-11-20T01:18:47;79499.00;;;2.30
12007;BMP180;6062;47.294;12.182;2022-11-20T01:21:23;79495.00;;;2.20
12007;BMP180;6062;47.294;12.182;2022-11-20T01:23:50;79498.00;;;2.20
12007;BMP180;6062;47.294;12.182;2022-11-20T01:26:23;79500.00;;;2.20
12007;BMP180;6062;47.294;12.182;2022-11-20T01:28:50;79506.00;;;2.10
12007;BMP180;6062;47.294;12.182;2022-11-20T01:31:22;79496.00;;;2.10
12007;BMP180;6062;47.294;12.182;2022-11-20T01:33:51;79509.00;;;2.10
12007;BMP180;6062;47.294;12.182;2022-11-20T01:36:19;79508.00;;;2.10
12007;BMP180;6062;47.294;12.182;2022-11-20T01:38:46;79494.00;;;2.10
12007;BMP180;6062;47.294;12.182;2022-11-20T01:41:14;79499.00;;;2.10
12007;BMP180;6062;47.294;12.182;2022-11-20T01:44:01;79510.00;;;2.00
12007;BMP180;6062;47.294;12.182;2022-11-20T01:46:27;79500.00;;;2.00
12007;BMP180;6062;47.294;12.182;2022-11-20T01:49:20;79503.00;;;2.00
12007;BMP180;6062;47.294;12.182;2022-11-20T01:53:03;79496.00;;;2.00
12007;BMP180;6062;47.294;12.182;2022-11-20T01:55:26;79506.00;;;2.00
12007;BMP180;6062;47.294;12.182;2022-11-20T01:57:54;79503.00;;;2.00
12007;BMP180;6062;47.294;12.182;2022-11-20T02:00:21;79501.00;;;2.00
12007;BMP180;6062;47.294;12.182;2022-11-20T02:02:53;79501.00;;;2.00
12007;BMP180;6062;47.294;12.182;2022-11-20T02:08:12;79504.00;;;2.10
12007;BMP180;6062;47.294;12.182;2022-11-20T02:10:38;79503.00;;;2.10
12007;BMP180;6062;47.294;12.182;2022-11-20T02:13:04;79504.00;;;2.20
12007;BMP180;6062;47.294;12.182;2022-11-20T02:15:49;79506.00;;;2.20
12007;BMP180;6062;47.294;12.182;2022-11-20T02:18:18;79496.00;;;2.20
12007;BMP180;6062;47.294;12.182;2022-11-20T02:20:49;79506.00;;;2.20
12007;BMP180;6062;47.294;12.182;2022-11-20T02:23:38;79506.00;;;2.20
12007;BMP180;6062;47.294;12.182;2022-11-20T02:26:10;79501.00;;;2.20
12007;BMP180;6062;47.294;12.182;2022-11-20T02:28:37;79500.00;;;2.20
12007;BMP180;6062;47.294;12.182;2022-11-20T02:31:03;79507.00;;;2.20
12007;BMP180;6062;47.294;12.182;2022-11-20T02:33:28;79506.00;;;2.20
12007;BMP180;6062;47.294;12.182;2022-11-20T02:35:54;79494.00;;;2.30
12007;BMP180;6062;47.294;12.182;2022-11-20T02:38:20;79499.00;;;2.30
12007;BMP180;6062;47.294;12.182;2022-11-20T02:40:46;79503.00;;;2.30
12007;BMP180;6062;47.294;12.182;2022-11-20T02:43:11;79497.00;;;2.30
12007;BMP180;6062;47.294;12.182;2022-11-20T02:45:37;79503.00;;;2.30
12007;BMP180;6062;47.294;12.182;2022-11-20T02:48:03;79508.00;;;2.30
12007;BMP180;6062;47.294;12.182;2022-11-20T02:50:29;79505.00;;;2.30
12007;BMP180;6062;47.294;12.182;2022-11-20T02:52:55;79499.00;;;2.30
12007;BMP180;6062;47.294;12.182;2022-11-20T02:55:20;79494.00;;;2.30
12007;BMP180;6062;47.294;12.182;2022-11-20T02:57:46;79488.00;;;2.30
12007;BMP180;6062;47.294;12.182;2022-11-20T03:00:12;79491.00;;;2.30
12007;BMP180;6062;47.294;12.182;2022-11-20T03:02:38;79491.00;;;2.30
12007;BMP180;6062;47.294;12.182;2022-11-20T03:05:04;79490.00;;;2.30
12007;BMP180;6062;47.294;12.182;2022-11-20T03:07:29;79495.00;;;2.20
12007;BMP180;6062;47.294;12.182;2022-11-20T03:09:55;79497.00;;;2.10
12007;BMP180;6062;47.294;12.182;2022-11-20T03:12:20;79497.00;;;2.10
12007;BMP180;6062;47.294;12.182;2022-11-20T03:14:46;79497.00;;;2.00
12007;BMP180;6062;47.294;12.182;2022-11-20T03:17:12;79497.00;;;2.00
12007;BMP180;6062;47.294;12.182;2022-11-20T03:19:38;79495.00;;;2.00
12007;BMP180;6062;47.294;12.182;2022-11-20T03:22:03;79494.00;;;2.00
12007;BMP180;6062;47.294;12.182;2022-11-20T03:24:29;79496.00;;;2.00
12007;BMP180;6062;47.294;12.182;2022-11-20T03:26:54;79489.00;;;2.00
12007;BMP180;6062;47.294;12.182;2022-11-20T03:29:20;79485.00;;;2.00
12007;BMP180;6062;47.294;12.182;2022-11-20T03:31:46;79487.00;;;2.00
12007;BMP180;6062;47.294;12.182;2022-11-20T03:34:12;79480.00;;;2.00
12007;BMP180;6062;47.294;12.182;2022-11-20T03:36:39;79493.00;;;1.90
12007;BMP180;6062;47.294;12.182;2022-11-20T03:39:05;79492.00;;;1.90
12007;BMP180;6062;47.294;12.182;2022-11-20T03:41:36;79489.00;;;1.90
12007;BMP180;6062;47.294;12.182;2022-11-20T03:44:05;79497.00;;;1.80
12007;BMP180;6062;47.294;12.182;2022-11-20T03:46:32;79498.00;;;1.80
12007;BMP180;6062;47.294;12.182;2022-11-20T03:48:58;79498.00;;;1.80
12007;BMP180;6062;47.294;12.182;2022-11-20T03:51:27;79493.00;;;1.80
12007;BMP180;6062;47.294;12.182;2022-11-20T03:53:57;79490.00;;;1.80
12007;BMP180;6062;47.294;12.182;2022-11-20T03:56:30;79498.00;;;1.80
12007;BMP180;6062;47.294;12.182;2022-11-20T03:58:56;79490.00;;;1.80
12007;BMP180;6062;47.294;12.182;2022-11-20T04:01:25;79499.00;;;1.80
12007;BMP180;6062;47.294;12.182;2022-11-20T04:03:54;79495.00;;;1.80
12007;BMP180;6062;47.294;12.182;2022-11-20T04:06:23;79486.00;;;1.90
12007;BMP180;6062;47.294;12.182;2022-11-20T04:08:51;79495.00;;;1.90
12007;BMP180;6062;47.294;12.182;2022-11-20T04:11:31;79496.00;;;1.80
12007;BMP180;6062;47.294;12.182;2022-11-20T04:14:00;79499.00;;;1.80
12007;BMP180;6062;47.294;12.182;2022-11-20T04:16:30;79491.00;;;1.70
12007;BMP180;6062;47.294;12.182;2022-11-20T04:18:59;79485.00;;;1.70
12007;BMP180;6062;47.294;12.182;2022-11-20T04:21:26;79498.00;;;1.70
12007;BMP180;6062;47.294;12.182;2022-11-20T04:23:53;79490.00;;;1.70
12007;BMP180;6062;47.294;12.182;2022-11-20T04:26:21;79492.00;;;1.70
12007;BMP180;6062;47.294;12.182;2022-11-20T04:28:47;79501.00;;;1.70
12007;BMP180;6062;47.294;12.182;2022-11-20T04:31:16;79507.00;;;1.70
12007;BMP180;6062;47.294;12.182;2022-11-20T04:33:43;79489.00;;;1.70
12007;BMP180;6062;47.294;12.182;2022-11-20T04:36:21;79495.00;;;1.80
12007;BMP180;6062;47.294;12.182;2022-11-20T04:38:55;79492.00;;;1.80
12007;BMP180;6062;47.294;12.182;2022-11-20T04:41:27;79487.00;;;1.80
12007;BMP180;6062;47.294;12.182;2022-11-20T04:43:59;79499.00;;;1.80
12007;BMP180;6062;47.294;12.182;2022-11-20T04:46:32;79487.00;;;1.80
12007;BMP180;6062;47.294;12.182;2022-11-20T04:48:59;79493.00;;;1.80
12007;BMP180;6062;47.294;12.182;2022-11-20T04:51:26;79492.00;;;1.80
12007;BMP180;6062;47.294;12.182;2022-11-20T04:53:52;79486.00;;;1.80
12007;BMP180;6062;47.294;12.182;2022-11-20T04:56:18;79482.00;;;1.80
12007;BMP180;6062;47.294;12.182;2022-11-20T04:58:44;79482.00;;;1.80
12007;BMP180;6062;47.294;12.182;2022-11-20T05:01:22;79489.00;;;1.80
12007;BMP180;6062;47.294;12.182;2022-11-20T05:03:49;79486.00;;;1.70
12007;BMP180;6062;47.294;12.182;2022-11-20T05:06:19;79490.00;;;1.70
12007;BMP180;6062;47.294;12.182;2022-11-20T05:08:45;79490.00;;;1.70
12007;BMP180;6062;47.294;12.182;2022-11-20T05:11:15;79491.00;;;1.60
12007;BMP180;6062;47.294;12.182;2022-11-20T05:13:41;79496.00;;;1.60
12007;BMP180;6062;47.294;12.182;2022-11-20T05:16:17;79495.00;;;1.60
12007;BMP180;6062;47.294;12.182;2022-11-20T05:18:44;79501.00;;;1.60
12007;BMP180;6062;47.294;12.182;2022-11-20T05:21:12;79499.00;;;1.50
12007;BMP180;6062;47.294;12.182;2022-11-20T05:23:39;79500.00;;;1.40
12007;BMP180;6062;47.294;12.182;2022-11-20T05:26:07;79490.00;;;1.30
12007;BMP180;6062;47.294;12.182;2022-11-20T05:28:33;79499.00;;;1.10
12007;BMP180;6062;47.294;12.182;2022-11-20T05:31:15;79505.00;;;1.00
12007;BMP180;6062;47.294;12.182;2022-11-20T05:33:43;79505.00;;;1.00
12007;BMP180;6062;47.294;12.182;2022-11-20T05:36:11;79505.00;;;1.00
12007;BMP180;6062;47.294;12.182;2022-11-20T05:38:37;79504.00;;;1.00
12007;BMP180;6062;47.294;12.182;2022-11-20T05:41:15;79512.00;;;1.10
12007;BMP180;6062;47.294;12.182;2022-11-20T05:43:44;79506.00;;;1.10
12007;BMP180;6062;47.294;12.182;2022-11-20T05:46:13;79504.00;;;1.10
12007;BMP180;6062;47.294;12.182;2022-11-20T05:48:41;79513.00;;;1.20
12007;BMP180;6062;47.294;12.182;2022-11-20T05:51:10;79513.00;;;1.20
12007;BMP180;6062;47.294;12.182;2022-11-20T05:53:36;79513.00;;;1.20
12007;BMP180;6062;47.294;12.182;2022-11-20T05:56:16;79508.00;;;1.20
12007;BMP180;6062;47.294;12.182;2022-11-20T05:58:42;79514.00;;;1.20
12007;BMP180;6062;47.294;12.182;2022-11-20T06:01:20;79515.00;;;1.10
12007;BMP180;6062;47.294;12.182;2022-11-20T06:03:47;79520.00;;;1.10
12007;BMP180;6062;47.294;12.182;2022-11-20T06:06:17;79523.00;;;1.10
12007;BMP180;6062;47.294;12.182;2022-11-20T06:08:44;79516.00;;;1.10
12007;BMP180;6062;47.294;12.182;2022-11-20T06:11:12;79521.00;;;1.20
12007;BMP180;6062;47.294;12.182;2022-11-20T06:13:38;79517.00;;;1.20
12007;BMP180;6062;47.294;12.182;2022-11-20T06:16:05;79523.00;;;1.30
12007;BMP180;6062;47.294;12.182;2022-11-20T06:18:30;79521.00;;;1.30
12007;BMP180;6062;47.294;12.182;2022-11-20T06:21:06;79518.00;;;1.30
12007;BMP180;6062;47.294;12.182;2022-11-20T06:23:34;79510.00;;;1.30
12007;BMP180;6062;47.294;12.182;2022-11-20T06:26:11;79515.00;;;1.30
12007;BMP180;6062;47.294;12.182;2022-11-20T06:28:37;79520.00;;;1.40
12007;BMP180;6062;47.294;12.182;2022-11-20T06:31:04;79508.00;;;1.40
12007;BMP180;6062;47.294;12.182;2022-11-20T06:33:30;79522.00;;;1.40
12007;BMP180;6062;47.294;12.182;2022-11-20T06:35:57;79515.00;;;1.50
12007;BMP180;6062;47.294;12.182;2022-11-20T06:38:25;79520.00;;;1.50
12007;BMP180;6062;47.294;12.182;2022-11-20T06:40:50;79524.00;;;1.50
12007;BMP180;6062;47.294;12.182;2022-11-20T06:43:16;79518.00;;;1.60
12007;BMP180;6062;47.294;12.182;2022-11-20T06:45:42;79517.00;;;1.70
12007;BMP180;6062;47.294;12.182;2022-11-20T06:48:08;79531.00;;;1.70
12007;BMP180;6062;47.294;12.182;2022-11-20T06:50:37;79532.00;;;1.70
12007;BMP180;6062;47.294;12.182;2022-11-20T06:53:04;79533.00;;;1.80
12007;BMP180;6062;47.294;12.182;2022-11-20T06:55:31;79546.00;;;1.80
12007;BMP180;6062;47.294;12.182;2022-11-20T06:57:57;79538.00;;;1.80
12007;BMP180;6062;47.294;12.182;2022-11-20T07:00:23;79549.00;;;1.90
12007;BMP180;6062;47.294;12.182;2022-11-20T07:02:48;79542.00;;;1.90
12007;BMP180;6062;47.294;12.182;2022-11-20T07:05:14;79541.00;;;1.90
12007;BMP180;6062;47.294;12.182;2022-11-20T07:07:40;79550.00;;;1.90
12007;BMP180;6062;47.294;12.182;2022-11-20T07:10:06;79559.00;;;1.90
12007;BMP180;6062;47.294;12.182;2022-11-20T07:12:32;79558.00;;;1.90
12007;BMP180;6062;47.294;12.182;2022-11-20T07:14:57;79553.00;;;2.00
12007;BMP180;6062;47.294;12.182;2022-11-20T07:17:23;79557.00;;;2.00
12007;BMP180;6062;47.294;12.182;2022-11-20T07:19:49;79553.00;;;2.10
12007;BMP180;6062;47.294;12.182;2022-11-20T07:22:14;79555.00;;;2.20
12007;BMP180;6062;47.294;12.182;2022-11-20T07:24:40;79550.00;;;2.30
12007;BMP180;6062;47.294;12.182;2022-11-20T07:27:06;79555.00;;;2.40
12007;BMP180;6062;47.294;12.182;2022-11-20T07:29:31;79545.00;;;2.50
12007;BMP180;6062;47.294;12.182;2022-11-20T07:31:57;79558.00;;;2.60
12007;BMP180;6062;47.294;12.182;2022-11-20T07:34:23;79558.00;;;2.70
12007;BMP180;6062;47.294;12.182;2022-11-20T07:36:49;79562.00;;;2.90
12007;BMP180;6062;47.294;12.182;2022-11-20T07:39:15;79561.00;;;3.10
12007;BMP180;6062;47.294;12.182;2022-11-20T07:41:40;79561.00;;;3.20
12007;BMP180;6062;47.294;12.182;2022-11-20T07:44:06;79562.00;;;3.40
12007;BMP180;6062;47.294;12.182;2022-11-20T07:46:31;79565.00;;;3.60
12007;BMP180;6062;47.294;12.182;2022-11-20T07:48:57;79565.00;;;3.70
12007;BMP180;6062;47.294;12.182;2022-11-20T07:51:23;79561.00;;;3.80
12007;BMP180;6062;47.294;12.182;2022-11-20T07:53:52;79569.00;;;3.90
12007;BMP180;6062;47.294;12.182;2022-11-20T07:56:17;79574.00;;;3.90
12007;BMP180;6062;47.294;12.182;2022-11-20T07:58:43;79574.00;;;4.00
12007;BMP180;6062;47.294;12.182;2022-11-20T08:01:09;79570.00;;;3.90
12007;BMP180;6062;47.294;12.182;2022-11-20T08:03:35;79575.00;;;4.00
12007;BMP180;6062;47.294;12.182;2022-11-20T08:06:03;79578.00;;;4.00
12007;BMP180;6062;47.294;12.182;2022-11-20T08:08:29;79576.00;;;4.10
12007;BMP180;6062;47.294;12.182;2022-11-20T08:10:58;79582.00;;;4.10
12007;BMP180;6062;47.294;12.182;2022-11-20T08:13:43;79577.00;;;4.30
12007;BMP180;6062;47.294;12.182;2022-11-20T08:16:27;79576.00;;;4.40
12007;BMP180;6062;47.294;12.182;2022-11-20T08:18:54;79579.00;;;4.50
12007;BMP180;6062;47.294;12.182;2022-11-20T08:21:19;79587.00;;;4.60
12007;BMP180;6062;47.294;12.182;2022-11-20T08:23:45;79592.00;;;4.70
12007;BMP180;6062;47.294;12.182;2022-11-20T08:26:10;79591.00;;;4.80
12007;BMP180;6062;47.294;12.182;2022-11-20T08:28:36;79582.00;;;4.90
12007;BMP180;6062;47.294;12.182;2022-11-20T08:31:03;79591.00;;;5.00
12007;BMP180;6062;47.294;12.182;2022-11-20T08:33:29;79591.00;;;5.10
12007;BMP180;6062;47.294;12.182;2022-11-20T08:36:03;79588.00;;;5.30
12007;BMP180;6062;47.294;12.182;2022-11-20T08:38:30;79590.00;;;5.40
12007;BMP180;6062;47.294;12.182;2022-11-20T08:40:58;79594.00;;;5.60
12007;BMP180;6062;47.294;12.182;2022-11-20T08:43:42;79597.00;;;5.60
12007;BMP180;6062;47.294;12.182;2022-11-20T08:46:08;79596.00;;;5.70
12007;BMP180;6062;47.294;12.182;2022-11-20T08:48:34;79603.00;;;5.70
12007;BMP180;6062;47.294;12.182;2022-11-20T08:50:59;79592.00;;;5.60
12007;BMP180;6062;47.294;12.182;2022-11-20T08:53:26;79594.00;;;5.60
12007;BMP180;6062;47.294;12.182;2022-11-20T08:55:52;79602.00;;;5.50
12007;BMP180;6062;47.294;12.182;2022-11-20T08:58:18;79599.00;;;5.50
12007;BMP180;6062;47.294;12.182;2022-11-20T09:00:43;79593.00;;;5.50
12007;BMP180;6062;47.294;12.182;2022-11-20T09:03:09;79602.00;;;5.80
12007;BMP180;6062;47.294;12.182;2022-11-20T09:05:35;79596.00;;;6.50
12007;BMP180;6062;47.294;12.182;2022-11-20T09:08:00;79610.00;;;7.50
12007;BMP180;6062;47.294;12.182;2022-11-20T09:10:27;79614.00;;;8.70
12007;BMP180;6062;47.294;12.182;2022-11-20T09:12:53;79615.00;;;9.60
12007;BMP180;6062;47.294;12.182;2022-11-20T09:15:20;79614.00;;;10.40
12007;BMP180;6062;47.294;12.182;2022-11-20T09:17:58;79618.00;;;10.80
12007;BMP180;6062;47.294;12.182;2022-11-20T09:20:26;79612.00;;;11.20
12007;BMP180;6062;47.294;12.182;2022-11-20T09:22:52;79616.00;;;11.60
12007;BMP180;6062;47.294;12.182;2022-11-20T09:25:18;79617.00;;;12.20
12007;BMP180;6062;47.294;12.182;2022-11-20T09:27:44;79619.00;;;12.90
12007;BMP180;6062;47.294;12.182;2022-11-20T09:30:13;79624.00;;;13.50
12007;BMP180;6062;47.294;12.182;2022-11-20T09:32:39;79626.00;;;14.20
12007;BMP180;6062;47.294;12.182;2022-11-20T09:35:05;79621.00;;;14.90
12007;BMP180;6062;47.294;12.182;2022-11-20T09:37:31;79626.00;;;15.60
12007;BMP180;6062;47.294;12.182;2022-11-20T09:39:57;79628.00;;;16.50
12007;BMP180;6062;47.294;12.182;2022-11-20T09:54:18;79632.00;;;20.30
12007;BMP180;6062;47.294;12.182;2022-11-20T09:56:56;79634.00;;;20.90
12007;BMP180;6062;47.294;12.182;2022-11-20T09:59:34;79630.00;;;21.10
12007;BMP180;6062;47.294;12.182;2022-11-20T10:02:12;79635.00;;;21.40
12007;BMP180;6062;47.294;12.182;2022-11-20T10:04:48;79623.00;;;21.60
12007;BMP180;6062;47.294;12.182;2022-11-20T10:07:43;79619.00;;;21.80
12007;BMP180;6062;47.294;12.182;2022-11-20T10:10:33;79625.00;;;22.00
12007;BMP180;6062;47.294;12.182;2022-11-20T10:16:50;79627.00;;;22.40
12007;BMP180;6062;47.294;12.182;2022-11-20T10:19:45;79626.00;;;22.10
12007;BMP180;6062;47.294;12.182;2022-11-20T10:25:50;79625.00;;;20.50
12007;BMP180;6062;47.294;12.182;2022-11-20T10:28:48;79624.00;;;19.40
12007;BMP180;6062;47.294;12.182;2022-11-20T10:31:34;79618.00;;;18.30
12007;BMP180;6062;47.294;12.182;2022-11-20T10:34:17;79616.00;;;17.40
12007;BMP180;6062;47.294;12.182;2022-11-20T10:36:55;79613.00;;;16.50
12007;BMP180;6062;47.294;12.182;2022-11-20T10:42:32;79606.00;;;14.40
12007;BMP180;6062;47.294;12.182;2022-11-20T10:47:46;79604.00;;;12.70
12007;BMP180;6062;47.294;12.182;2022-11-20T10:50:19;79602.00;;;12.20
12007;BMP180;6062;47.294;12.182;2022-11-20T10:55:56;79600.00;;;11.40
12007;BMP180;6062;47.294;12.182;2022-11-20T10:59:03;79609.00;;;11.00
12007;BMP180;6062;47.294;12.182;2022-11-20T11:01:29;79607.00;;;10.60
12007;BMP180;6062;47.294;12.182;2022-11-20T11:03:56;79603.00;;;10.30
12007;BMP180;6062;47.294;12.182;2022-11-20T11:06:37;79611.00;;;9.90
12007;BMP180;6062;47.294;12.182;2022-11-20T11:09:17;79596.00;;;9.80
12007;BMP180;6062;47.294;12.182;2022-11-20T11:11:44;79604.00;;;9.70
12007;BMP180;6062;47.294;12.182;2022-11-20T11:14:15;79603.00;;;9.80
12007;BMP180;6062;47.294;12.182;2022-11-20T11:16:57;79598.00;;;9.80
12007;BMP180;6062;47.294;12.182;2022-11-20T11:19:24;79603.00;;;9.80
12007;BMP180;6062;47.294;12.182;2022-11-20T11:21:56;79596.00;;;9.80
12007;BMP180;6062;47.294;12.182;2022-11-20T11:24:29;79586.00;;;9.80
12007;BMP180;6062;47.294;12.182;2022-11-20T11:27:14;79597.00;;;10.10
12007;BMP180;6062;47.294;12.182;2022-11-20T11:29:43;79596.00;;;10.40
12007;BMP180;6062;47.294;12.182;2022-11-20T11:32:14;79585.00;;;10.70
12007;BMP180;6062;47.294;12.182;2022-11-20T11:34:41;79586.00;;;11.20
12007;BMP180;6062;47.294;12.182;2022-11-20T11:37:33;79585.00;;;11.80
12007;BMP180;6062;47.294;12.182;2022-11-20T11:39:59;79584.00;;;12.10
12007;BMP180;6062;47.294;12.182;2022-11-20T11:42:26;79585.00;;;12.40
12007;BMP180;6062;47.294;12.182;2022-11-20T11:44:56;79593.00;;;12.70
12007;BMP180;6062;47.294;12.182;2022-11-20T11:47:37;79583.00;;;12.80
12007;BMP180;6062;47.294;12.182;2022-11-20T11:55:26;79589.00;;;13.80
12007;BMP180;6062;47.294;12.182;2022-11-20T11:58:13;79581.00;;;14.40
12007;BMP180;6062;47.294;12.182;2022-11-20T12:00:53;79586.00;;;14.70
12007;BMP180;6062;47.294;12.182;2022-11-20T12:03:37;79588.00;;;14.80
12007;BMP180;6062;47.294;12.182;2022-11-20T12:06:14;79587.00;;;14.70
12007;BMP180;6062;47.294;12.182;2022-11-20T12:08:47;79581.00;;;14.80
12007;BMP180;6062;47.294;12.182;2022-11-20T12:14:17;79589.00;;;15.00
12007;BMP180;6062;47.294;12.182;2022-11-20T12:16:46;79593.00;;;15.00
12007;BMP180;6062;47.294;12.182;2022-11-20T12:19:14;79586.00;;;14.90
12007;BMP180;6062;47.294;12.182;2022-11-20T12:29:58;79568.00;;;14.20
12007;BMP180;6062;47.294;12.182;2022-11-20T12:32:49;79575.00;;;13.90
12007;BMP180;6062;47.294;12.182;2022-11-20T12:48:27;79561.00;;;11.70
12007;BMP180;6062;47.294;12.182;2022-11-20T12:54:45;79553.00;;;10.80
12007;BMP180;6062;47.294;12.182;2022-11-20T13:00:25;79555.00;;;9.80
12007;BMP180;6062;47.294;12.182;2022-11-20T13:03:17;79545.00;;;9.50
12007;BMP180;6062;47.294;12.182;2022-11-20T13:08:41;79552.00;;;9.10
12007;BMP180;6062;47.294;12.182;2022-11-20T13:11:30;79555.00;;;9.00
12007;BMP180;6062;47.294;12.182;2022-11-20T13:16:59;79545.00;;;8.40
12007;BMP180;6062;47.294;12.182;2022-11-20T13:19:26;79549.00;;;8.10
12007;BMP180;6062;47.294;12.182;2022-11-20T13:21:53;79547.00;;;7.90
12007;BMP180;6062;47.294;12.182;2022-11-20T13:24:20;79542.00;;;7.60
12007;BMP180;6062;47.294;12.182;2022-11-20T13:29:35;79541.00;;;7.20
12007;BMP180;6062;47.294;12.182;2022-11-20T13:32:14;79545.00;;;7.00
12007;BMP180;6062;47.294;12.182;2022-11-20T13:34:56;79532.00;;;6.90
12007;BMP180;6062;47.294;12.182;2022-11-20T13:37:35;79532.00;;;6.70
12007;BMP180;6062;47.294;12.182;2022-11-20T13:42:44;79541.00;;;6.30
12007;BMP180;6062;47.294;12.182;2022-11-20T13:47:51;79531.00;;;5.90
12007;BMP180;6062;47.294;12.182;2022-11-20T13:50:17;79530.00;;;5.80
12007;BMP180;6062;47.294;12.182;2022-11-20T13:56:21;79527.00;;;5.60
12007;BMP180;6062;47.294;12.182;2022-11-20T14:01:37;79524.00;;;5.50
12007;BMP180;6062;47.294;12.182;2022-11-20T14:04:08;79518.00;;;5.50
12007;BMP180;6062;47.294;12.182;2022-11-20T14:06:45;79517.00;;;5.40
12007;BMP180;6062;47.294;12.182;2022-11-20T14:09:28;79515.00;;;5.30
12007;BMP180;6062;47.294;12.182;2022-11-20T14:11:54;79513.00;;;5.20
12007;BMP180;6062;47.294;12.182;2022-11-20T14:14:26;79512.00;;;5.10
12007;BMP180;6062;47.294;12.182;2022-11-20T14:17:08;79522.00;;;5.00
12007;BMP180;6062;47.294;12.182;2022-11-20T14:19:35;79526.00;;;4.90
12007;BMP180;6062;47.294;12.182;2022-11-20T14:24:33;79513.00;;;4.70
12007;BMP180;6062;47.294;12.182;2022-11-20T14:26:59;79517.00;;;4.60
12007;BMP180;6062;47.294;12.182;2022-11-20T14:29:36;79511.00;;;4.50
12007;BMP180;6062;47.294;12.182;2022-11-20T14:32:04;79511.00;;;4.50
12007;BMP180;6062;47.294;12.182;2022-11-20T14:34:37;79504.00;;;4.50
12007;BMP180;6062;47.294;12.182;2022-11-20T14:37:09;79505.00;;;4.50
12007;BMP180;6062;47.294;12.182;2022-11-20T14:39:41;79503.00;;;4.40
12007;BMP180;6062;47.294;12.182;2022-11-20T14:42:20;79511.00;;;4.50
12007;BMP180;6062;47.294;12.182;2022-11-20T14:44:48;79504.00;;;4.50
12007;BMP180;6062;47.294;12.182;2022-11-20T14:47:21;79507.00;;;4.50
12007;BMP180;6062;47.294;12.182;2022-11-20T14:49:48;79506.00;;;4.40
12007;BMP180;6062;47.294;12.182;2022-11-20T14:52:21;79504.00;;;4.30
12007;BMP180;6062;47.294;12.182;2022-11-20T14:54:50;79510.00;;;4.30
12007;BMP180;6062;47.294;12.182;2022-11-20T14:57:31;79497.00;;;4.20
12007;BMP180;6062;47.294;12.182;2022-11-20T15:02:45;79497.00;;;4.00
12007;BMP180;6062;47.294;12.182;2022-11-20T15:05:11;79504.00;;;3.80
12007;BMP180;6062;47.294;12.182;2022-11-20T15:07:40;79501.00;;;3.70
12007;BMP180;6062;47.294;12.182;2022-11-20T15:10:23;79498.00;;;3.60
12007;BMP180;6062;47.294;12.182;2022-11-20T15:12:56;79498.00;;;3.50
12007;BMP180;6062;47.294;12.182;2022-11-20T15:15:46;79492.00;;;3.40
12007;BMP180;6062;47.294;12.182;2022-11-20T15:18:40;79499.00;;;3.20
12007;BMP180;6062;47.294;12.182;2022-11-20T15:21:15;79499.00;;;3.10
12007;BMP180;6062;47.294;12.182;2022-11-20T15:23:42;79493.00;;;3.00
12007;BMP180;6062;47.294;12.182;2022-11-20T15:26:10;79502.00;;;2.90
12007;BMP180;6062;47.294;12.182;2022-11-20T15:28:41;79494.00;;;2.70
12007;BMP180;6062;47.294;12.182;2022-11-20T15:31:12;79505.00;;;2.60
12007;BMP180;6062;47.294;12.182;2022-11-20T15:33:38;79498.00;;;2.50
12007;BMP180;6062;47.294;12.182;2022-11-20T15:36:04;79496.00;;;2.50
12007;BMP180;6062;47.294;12.182;2022-11-20T15:38:30;79491.00;;;2.40
12007;BMP180;6062;47.294;12.182;2022-11-20T15:40:56;79495.00;;;2.30
12007;BMP180;6062;47.294;12.182;2022-11-20T15:43:22;79491.00;;;2.20
12007;BMP180;6062;47.294;12.182;2022-11-20T15:45:59;79487.00;;;2.10
12007;BMP180;6062;47.294;12.182;2022-11-20T15:48:39;79488.00;;;2.00
12007;BMP180;6062;47.294;12.182;2022-11-20T15:51:14;79489.00;;;1.90
12007;BMP180;6062;47.294;12.182;2022-11-20T15:53:45;79488.00;;;1.80
12007;BMP180;6062;47.294;12.182;2022-11-20T15:56:12;79496.00;;;1.70
12007;BMP180;6062;47.294;12.182;2022-11-20T15:58:39;79491.00;;;1.60
12007;BMP180;6062;47.294;12.182;2022-11-20T16:01:05;79489.00;;;1.50
12007;BMP180;6062;47.294;12.182;2022-11-20T16:03:30;79488.00;;;1.50
12007;BMP180;6062;47.294;12.182;2022-11-20T16:05:56;79486.00;;;1.40
12007;BMP180;6062;47.294;12.182;2022-11-20T16:08:22;79503.00;;;1.30
12007;BMP180;6062;47.294;12.182;2022-11-20T16:10:47;79496.00;;;1.30
12007;BMP180;6062;47.294;12.182;2022-11-20T16:13:16;79494.00;;;1.20